createdAt,value
2018-08-19T00:00:22.028Z,4.20
2018-08-19T00:02:52.846Z,3.67
2018-08-19T00:05:20.991Z,4.10
2018-08-19T00:07:49.278Z,4.20
2018-08-19T00:10:23.496Z,4.00
2018-08-19T00:12:51.584Z,4.10
2018-08-19T00:15:20.343Z,4.00
2018-08-19T00:17:48.454Z,3.90
2018-08-19T00:20:16.594Z,4.07
2018-08-19T00:22:45.591Z,4.03
2018-08-19T00:25:25.136Z,4.10
2018-08-19T00:27:53.619Z,4.43
2018-08-19T00:30:21.719Z,3.90
2018-08-19T00:32:49.889Z,3.97
2018-08-19T00:35:18.251Z,3.83
2018-08-19T00:37:46.391Z,3.87
2018-08-19T00:40:14.891Z,3.83
2018-08-19T00:42:43.678Z,3.73
2018-08-19T00:45:11.876Z,4.33
2018-08-19T00:47:40.319Z,4.33
2018-08-19T00:50:08.411Z,4.20
2018-08-19T00:52:38.992Z,4.47
2018-08-19T00:55:07.093Z,4.00
2018-08-19T00:57:37.571Z,3.70
2018-08-19T01:00:06.030Z,4.20
2018-08-19T01:02:34.849Z,4.67
2018-08-19T01:05:02.992Z,3.70
2018-08-19T01:07:33.725Z,4.30
2018-08-19T01:10:02.223Z,3.97
2018-08-19T01:12:30.920Z,3.70
2018-08-19T01:14:59.055Z,3.70
2018-08-19T01:17:32.619Z,3.80
2018-08-19T01:20:07.232Z,4.23
2018-08-19T01:22:38.084Z,4.50
2018-08-19T01:25:06.897Z,4.20
2018-08-19T01:27:36.979Z,3.70
2018-08-19T01:30:21.599Z,3.93
2018-08-19T01:32:50.157Z,4.13
2018-08-19T01:35:21.061Z,3.60
2018-08-19T01:37:49.563Z,4.17
2018-08-19T01:40:18.057Z,4.70
2018-08-19T01:42:46.865Z,4.33
2018-08-19T01:45:14.975Z,4.90
2018-08-19T01:47:43.319Z,4.20
2018-08-19T01:50:14.719Z,4.20
2018-08-19T01:52:43.820Z,4.57
2018-08-19T01:55:11.969Z,4.70
2018-08-19T01:57:48.391Z,4.20
2018-08-19T02:00:17.315Z,4.00
2018-08-19T02:02:54.180Z,4.13
2018-08-19T02:05:22.648Z,4.00
2018-08-19T02:07:53.163Z,4.47
2018-08-19T02:10:22.630Z,4.13
2018-08-19T02:12:51.668Z,3.87
2018-08-19T02:15:20.805Z,4.37
2018-08-19T02:17:53.520Z,4.23
2018-08-19T02:20:25.765Z,4.13
2018-08-19T02:23:01.528Z,4.37
2018-08-19T02:25:38.219Z,4.13
2018-08-19T02:28:07.492Z,4.60
2018-08-19T02:30:40.479Z,4.40
2018-08-19T02:33:08.856Z,4.17
2018-08-19T02:35:39.047Z,4.50
2018-08-19T02:38:07.409Z,4.20
2018-08-19T02:40:35.491Z,4.27
2018-08-19T02:43:03.736Z,4.47
2018-08-19T02:45:31.858Z,4.70
2018-08-19T02:48:00.034Z,4.37
2018-08-19T02:50:28.273Z,4.20
2018-08-19T02:52:56.403Z,4.40
2018-08-19T02:55:25.361Z,4.80
2018-08-19T02:58:24.080Z,4.43
2018-08-19T03:00:52.736Z,4.13
2018-08-19T03:03:21.152Z,3.87
2018-08-19T03:05:53.776Z,4.63
2018-08-19T03:08:21.880Z,4.30
2018-08-19T03:10:50.232Z,4.73
2018-08-19T03:13:18.340Z,4.27
2018-08-19T03:15:46.819Z,4.30
2018-08-19T03:18:15.120Z,4.67
2018-08-19T03:20:43.268Z,4.10
2018-08-19T03:23:12.799Z,4.50
2018-08-19T03:25:40.927Z,4.87
2018-08-19T03:28:09.282Z,4.27
2018-08-19T03:30:38.420Z,4.73
2018-08-19T03:33:06.989Z,4.70
2018-08-19T03:35:35.627Z,4.00
2018-08-19T03:38:07.419Z,4.77
2018-08-19T03:40:35.490Z,4.43
2018-08-19T03:43:03.632Z,4.47
2018-08-19T03:45:32.016Z,3.73
2018-08-19T03:48:00.120Z,4.20
2018-08-19T03:50:28.419Z,4.23
2018-08-19T03:52:57.198Z,4.60
2018-08-19T03:55:29.307Z,4.53
2018-08-19T03:58:06.332Z,4.20
2018-08-19T04:00:37.377Z,4.40
2018-08-19T04:03:14.092Z,4.20
2018-08-19T04:05:46.179Z,4.23
2018-08-19T04:08:15.044Z,4.70
2018-08-19T04:10:44.361Z,4.43
2018-08-19T04:13:38.730Z,4.20
2018-08-19T04:16:08.119Z,4.43
2018-08-19T04:18:40.596Z,4.00
2018-08-19T04:21:10.016Z,4.43
2018-08-19T04:23:40.841Z,4.30
2018-08-19T04:26:09.041Z,4.50
2018-08-19T04:28:38.760Z,4.37
2018-08-19T04:31:13.236Z,4.67
2018-08-19T04:33:41.531Z,4.67
2018-08-19T04:36:11.576Z,4.40
2018-08-19T04:38:39.769Z,4.40
2018-08-19T04:41:08.080Z,4.67
2018-08-19T04:43:36.173Z,4.47
2018-08-19T04:46:04.271Z,4.50
2018-08-19T04:48:32.490Z,4.83
2018-08-19T04:51:00.625Z,4.90
2018-08-19T04:53:29.731Z,4.80
2018-08-19T04:55:57.983Z,4.40
2018-08-19T04:58:26.075Z,4.40
2018-08-19T05:00:54.389Z,4.70
2018-08-19T05:03:22.507Z,4.40
2018-08-19T05:05:50.599Z,5.17
2018-08-19T05:08:18.831Z,4.90
2018-08-19T05:10:46.893Z,4.40
2018-08-19T05:13:14.999Z,4.90
2018-08-19T05:15:43.511Z,4.50
2018-08-19T05:18:11.606Z,4.37
2018-08-19T05:20:39.699Z,4.90
2018-08-19T05:23:08.462Z,4.90
2018-08-19T05:25:43.719Z,4.93
2018-08-19T05:28:12.446Z,5.07
2018-08-19T05:30:40.572Z,4.73
2018-08-19T05:33:09.407Z,4.83
2018-08-19T05:35:37.491Z,4.40
2018-08-19T05:38:05.650Z,4.57
2018-08-19T05:40:33.904Z,4.40
2018-08-19T05:43:02.076Z,4.63
2018-08-19T05:45:30.189Z,4.93
2018-08-19T05:48:09.401Z,4.80
2018-08-19T05:50:38.187Z,4.87
2018-08-19T05:53:06.295Z,4.50
2018-08-19T05:55:34.510Z,4.53
2018-08-19T05:58:03.474Z,4.67
2018-08-19T06:00:32.212Z,4.90
2018-08-19T06:03:01.590Z,4.43
2018-08-19T06:05:30.045Z,4.60
2018-08-19T06:08:07.611Z,4.70
2018-08-19T06:10:35.992Z,4.63
2018-08-19T06:13:04.139Z,4.73
2018-08-19T06:15:32.232Z,5.07
2018-08-19T06:18:00.583Z,5.10
2018-08-19T06:20:29.675Z,4.90
2018-08-19T06:22:57.840Z,5.10
2018-08-19T06:25:26.056Z,4.53
2018-08-19T06:27:54.308Z,4.10
2018-08-19T06:30:22.726Z,4.90
2018-08-19T06:32:50.870Z,4.60
2018-08-19T06:35:18.964Z,5.00
2018-08-19T06:37:47.199Z,4.63
2018-08-19T06:40:19.800Z,4.20
2018-08-19T06:42:47.912Z,4.70
2018-08-19T06:45:16.570Z,4.27
2018-08-19T06:47:44.882Z,4.30
2018-08-19T06:50:22.875Z,4.40
2018-08-19T06:52:51.154Z,5.03
2018-08-19T06:55:19.606Z,5.03
2018-08-19T06:57:47.847Z,4.63
2018-08-19T07:00:24.655Z,5.00
2018-08-19T07:02:52.939Z,4.73
2018-08-19T07:05:21.442Z,4.67
2018-08-19T07:07:49.832Z,4.87
2018-08-19T07:10:26.842Z,4.77
2018-08-19T07:13:00.263Z,4.30
2018-08-19T07:15:28.489Z,5.43
2018-08-19T07:17:56.616Z,4.67
2018-08-19T07:20:24.705Z,4.60
2018-08-19T07:22:52.844Z,4.23
2018-08-19T07:25:21.259Z,4.60
2018-08-19T07:27:49.507Z,4.73
2018-08-19T07:30:17.607Z,4.77
2018-08-19T07:32:45.778Z,4.80
2018-08-19T07:35:13.905Z,4.87
2018-08-19T07:37:42.028Z,4.27
2018-08-19T07:40:10.302Z,4.60
2018-08-19T07:42:38.483Z,4.77
2018-08-19T07:45:06.630Z,4.60
2018-08-19T07:47:35.167Z,4.80
2018-08-19T07:50:03.326Z,4.40
2018-08-19T07:52:31.411Z,4.90
2018-08-19T07:54:59.659Z,4.80
2018-08-19T07:57:29.000Z,5.10
2018-08-19T07:59:57.247Z,4.60
2018-08-19T08:02:28.838Z,5.10
2018-08-19T08:04:57.235Z,4.47
2018-08-19T08:07:27.778Z,4.53
2018-08-19T08:09:56.157Z,4.57
2018-08-19T08:12:24.275Z,4.97
2018-08-19T08:14:53.831Z,4.83
2018-08-19T08:17:23.112Z,4.80
2018-08-19T08:19:57.786Z,4.73
2018-08-19T08:22:27.226Z,4.30
2018-08-19T08:24:55.948Z,4.40
2018-08-19T08:27:24.070Z,4.47
2018-08-19T08:29:52.334Z,4.07
2018-08-19T08:32:20.784Z,4.50
2018-08-19T08:34:48.880Z,4.57
2018-08-19T08:37:17.003Z,4.70
2018-08-19T08:39:45.520Z,4.63
2018-08-19T08:42:13.614Z,4.43
2018-08-19T08:44:41.793Z,4.30
2018-08-19T08:47:11.299Z,4.60
2018-08-19T08:49:44.743Z,4.83
2018-08-19T08:52:17.877Z,4.37
2018-08-19T08:54:52.299Z,4.70
2018-08-19T08:57:21.294Z,5.00
2018-08-19T08:59:50.144Z,4.60
2018-08-19T09:02:18.468Z,4.70
2018-08-19T09:04:46.683Z,4.93
2018-08-19T09:07:15.159Z,4.60
2018-08-19T09:09:45.205Z,4.60
2018-08-19T09:12:14.823Z,4.53
2018-08-19T09:14:43.548Z,4.67
2018-08-19T09:17:12.285Z,4.93
2018-08-19T09:19:41.729Z,5.00
2018-08-19T09:22:10.632Z,5.17
2018-08-19T09:24:39.147Z,5.00
2018-08-19T09:27:07.267Z,4.70
2018-08-19T09:29:35.448Z,5.27
2018-08-19T09:32:03.675Z,5.17
2018-08-19T09:34:31.792Z,4.73
2018-08-19T09:37:01.182Z,5.20
2018-08-19T09:39:29.582Z,5.00
2018-08-19T09:42:04.512Z,5.30
2018-08-19T09:44:32.964Z,6.70
2018-08-19T09:47:01.270Z,9.90
2018-08-19T09:49:29.817Z,10.00
2018-08-19T09:51:57.980Z,9.90
2018-08-19T09:54:31.470Z,10.20
2018-08-19T09:56:59.700Z,8.40
2018-08-19T09:59:28.155Z,9.20
2018-08-19T10:01:56.256Z,9.57
2018-08-19T10:04:25.413Z,10.30
2018-08-19T10:07:00.408Z,11.07
2018-08-19T10:09:28.973Z,9.20
2018-08-19T10:11:57.654Z,10.97
2018-08-19T10:14:25.855Z,10.57
2018-08-19T10:16:54.009Z,9.87
2018-08-19T10:19:23.223Z,10.73
2018-08-19T10:21:51.372Z,10.00
2018-08-19T10:24:21.725Z,9.43
2018-08-19T10:26:49.847Z,8.60
2018-08-19T10:29:18.219Z,9.57
2018-08-19T10:31:52.474Z,8.13
2018-08-19T10:34:24.739Z,8.40
2018-08-19T10:36:53.090Z,9.00
2018-08-19T10:39:21.472Z,8.50
2018-08-19T10:41:49.903Z,8.03
2018-08-19T10:44:17.995Z,8.37
2018-08-19T10:46:46.091Z,8.40
2018-08-19T10:49:15.218Z,9.43
2018-08-19T10:51:44.433Z,8.77
2018-08-19T10:54:13.227Z,8.07
2018-08-19T10:56:41.358Z,7.60
2018-08-19T10:59:09.447Z,8.17
2018-08-19T11:01:37.927Z,7.33
2018-08-19T11:04:06.032Z,7.63
2018-08-19T11:06:34.128Z,6.90
2018-08-19T11:09:02.370Z,7.00
2018-08-19T11:11:32.624Z,6.63
2018-08-19T11:14:01.168Z,6.40
2018-08-19T11:16:29.451Z,6.73
2018-08-19T11:21:39.408Z,5.60
2018-08-19T11:24:15.995Z,6.10
2018-08-19T11:26:44.840Z,5.73
2018-08-19T11:29:12.924Z,7.70
2018-08-19T11:31:43.232Z,6.80
2018-08-19T11:34:11.304Z,7.83
2018-08-19T11:36:43.807Z,6.77
2018-08-19T11:39:16.518Z,7.00
2018-08-19T11:41:44.840Z,6.00
2018-08-19T11:44:15.487Z,6.00
2018-08-19T11:46:44.191Z,6.00
2018-08-19T11:49:14.644Z,5.30
2018-08-19T11:51:48.892Z,5.93
2018-08-19T11:54:18.143Z,5.20
2018-08-19T11:57:19.944Z,5.30
2018-08-19T11:59:48.453Z,5.63
2018-08-19T12:02:19.671Z,6.07
2018-08-19T12:04:48.171Z,4.90
2018-08-19T12:07:16.656Z,5.20
2018-08-19T12:09:51.732Z,5.23
2018-08-19T12:12:22.113Z,5.33
2018-08-19T12:14:50.507Z,5.40
2018-08-19T12:17:18.608Z,5.57
2018-08-19T12:19:46.747Z,4.57
2018-08-19T12:22:15.209Z,5.30
2018-08-19T12:24:46.578Z,4.30
2018-08-19T12:27:16.142Z,4.57
2018-08-19T12:29:44.889Z,4.93
2018-08-19T12:32:20.915Z,4.63
2018-08-19T12:34:53.203Z,4.80
2018-08-19T12:37:22.572Z,4.43
2018-08-19T12:39:52.165Z,5.03
2018-08-19T12:42:20.339Z,4.23
2018-08-19T12:44:50.943Z,4.90
2018-08-19T12:47:25.395Z,4.80
2018-08-19T12:49:56.049Z,4.37
2018-08-19T12:52:25.476Z,5.00
2018-08-19T12:54:56.855Z,4.87
2018-08-19T12:57:25.444Z,4.87
2018-08-19T12:59:56.793Z,4.97
2018-08-19T13:02:25.675Z,4.57
2018-08-19T13:04:53.758Z,5.27
2018-08-19T13:07:22.052Z,4.53
2018-08-19T13:09:50.562Z,5.30
2018-08-19T13:12:18.947Z,4.60
2018-08-19T13:14:47.291Z,4.80
2018-08-19T13:17:15.407Z,5.00
2018-08-19T13:19:47.816Z,4.50
2018-08-19T13:22:15.895Z,4.80
2018-08-19T13:24:44.060Z,5.20
2018-08-19T13:27:12.512Z,4.20
2018-08-19T13:29:40.584Z,4.77
2018-08-19T13:32:08.744Z,5.53
2018-08-19T13:34:37.067Z,4.83
2018-08-19T13:37:05.188Z,5.20
2018-08-19T13:39:33.274Z,5.57
2018-08-19T13:42:01.539Z,5.50
2018-08-19T13:44:29.780Z,4.80
2018-08-19T13:46:57.880Z,5.13
2018-08-19T13:49:28.044Z,5.30
2018-08-19T13:52:00.459Z,4.97
2018-08-19T13:54:28.623Z,5.93
2018-08-19T13:56:56.787Z,5.80
2018-08-19T13:59:25.115Z,5.27
2018-08-19T14:01:53.224Z,5.30
2018-08-19T14:04:21.305Z,5.90
2018-08-19T14:06:49.531Z,6.17
2018-08-19T14:09:17.887Z,5.67
2018-08-19T14:11:45.986Z,5.20
2018-08-19T14:14:14.089Z,5.03
2018-08-19T14:16:42.320Z,4.90
2018-08-19T14:19:10.444Z,4.00
2018-08-19T14:21:38.528Z,4.57
2018-08-19T14:24:06.941Z,4.70
2018-08-19T14:26:35.376Z,4.40
2018-08-19T14:29:03.524Z,4.40
2018-08-19T14:31:31.854Z,4.57
2018-08-19T14:34:00.834Z,4.20
2018-08-19T14:36:28.920Z,4.17
2018-08-19T14:38:57.302Z,4.00
2018-08-19T14:41:25.624Z,4.00
2018-08-19T14:44:00.383Z,4.27
2018-08-19T14:46:29.443Z,3.93
2018-08-19T14:49:00.963Z,4.27
2018-08-19T14:51:31.656Z,4.60
2018-08-19T14:54:14.048Z,4.00
2018-08-19T14:56:42.352Z,4.37
2018-08-19T14:59:11.136Z,3.80
2018-08-19T15:01:39.366Z,4.20
2018-08-19T15:04:07.592Z,3.67
2018-08-19T15:06:35.849Z,4.07
2018-08-19T15:09:04.972Z,3.70
2018-08-19T15:11:33.110Z,3.83
2018-08-19T15:14:05.664Z,4.30
2018-08-19T15:16:34.546Z,3.90
2018-08-19T15:19:02.745Z,3.90
2018-08-19T15:21:30.768Z,4.00
2018-08-19T15:23:59.027Z,4.27
2018-08-19T15:26:27.267Z,4.70
2018-08-19T15:31:31.051Z,5.30
2018-08-19T15:33:59.447Z,4.30
2018-08-19T15:36:27.561Z,5.30
2018-08-19T15:38:55.705Z,5.00
2018-08-19T15:41:24.005Z,5.63
2018-08-19T15:43:52.111Z,5.10
2018-08-19T15:46:20.248Z,5.03
2018-08-19T15:48:50.447Z,4.90
2018-08-19T15:51:25.121Z,5.33
2018-08-19T15:53:53.303Z,6.77
2018-08-19T15:56:21.681Z,5.00
2018-08-19T15:58:49.892Z,4.87
2018-08-19T16:01:26.808Z,5.30
2018-08-19T16:03:57.490Z,6.07
2018-08-19T16:06:25.640Z,4.57
2018-08-19T16:08:53.735Z,5.00
2018-08-19T16:11:21.987Z,5.93
2018-08-19T16:13:50.364Z,5.30
2018-08-19T16:16:22.535Z,5.20
2018-08-19T16:18:51.583Z,5.07
2018-08-19T16:21:20.319Z,5.10
2018-08-19T16:23:49.479Z,4.83
2018-08-19T16:26:17.615Z,5.00
2018-08-19T16:28:46.015Z,5.50
2018-08-19T16:31:14.437Z,5.23
2018-08-19T16:33:42.590Z,5.40
2018-08-19T16:36:10.719Z,6.10
2018-08-19T16:38:39.413Z,4.80
2018-08-19T16:41:07.507Z,6.13
2018-08-19T16:43:35.602Z,5.00
2018-08-19T16:46:04.004Z,5.70
2018-08-19T16:48:32.282Z,4.67
2018-08-19T16:51:00.515Z,5.37
2018-08-19T16:53:28.971Z,5.23
2018-08-19T16:55:57.180Z,6.03
2018-08-19T16:58:25.263Z,5.97
2018-08-19T17:00:53.356Z,5.40
2018-08-19T17:03:34.515Z,5.70
2018-08-19T17:06:02.865Z,4.93
2018-08-19T17:08:30.988Z,5.57
2018-08-19T17:10:59.265Z,5.80
2018-08-19T17:13:27.760Z,5.60
2018-08-19T17:15:55.911Z,5.43
2018-08-19T17:18:24.048Z,5.43
2018-08-19T17:20:52.855Z,4.67
2018-08-19T17:23:23.087Z,5.37
2018-08-19T17:25:51.696Z,5.27
2018-08-19T17:28:21.007Z,5.77
2018-08-19T17:30:50.406Z,5.67
2018-08-19T17:33:18.626Z,5.20
2018-08-19T17:35:47.645Z,5.27
2018-08-19T17:38:16.980Z,5.40
2018-08-19T17:40:45.116Z,5.23
2018-08-19T17:43:13.219Z,4.80
2018-08-19T17:45:41.435Z,5.13
2018-08-19T17:48:09.869Z,5.20
2018-08-19T17:50:38.423Z,4.63
2018-08-19T17:53:07.327Z,5.20
2018-08-19T17:55:35.652Z,4.90
2018-08-19T17:58:03.795Z,5.50
2018-08-19T18:00:31.879Z,4.50
2018-08-19T18:03:00.415Z,5.20
2018-08-19T18:05:28.650Z,4.97
2018-08-19T18:07:56.787Z,4.73
2018-08-19T18:10:24.884Z,5.13
2018-08-19T18:12:53.096Z,5.17
2018-08-19T18:15:21.372Z,4.80
2018-08-19T18:17:56.162Z,5.70
2018-08-19T18:20:25.247Z,5.40
2018-08-19T18:22:54.756Z,5.50
2018-08-19T18:25:22.986Z,5.27
2018-08-19T18:27:51.080Z,6.40
2018-08-19T18:30:20.022Z,6.27
2018-08-19T18:32:48.656Z,5.90
2018-08-19T18:35:16.908Z,6.03
2018-08-19T18:37:51.796Z,6.33
2018-08-19T18:40:35.246Z,7.30
2018-08-19T18:43:03.405Z,6.80
2018-08-19T18:45:31.478Z,7.17
2018-08-19T18:48:02.538Z,5.90
2018-08-19T18:50:30.662Z,6.97
2018-08-19T18:52:58.995Z,6.70
2018-08-19T18:55:27.187Z,6.60
2018-08-19T18:57:57.076Z,7.00
2018-08-19T19:00:26.613Z,7.23
2018-08-19T19:02:56.160Z,6.93
2018-08-19T19:05:31.611Z,6.97
2018-08-19T19:08:07.752Z,8.00
2018-08-19T19:10:36.265Z,8.47
2018-08-19T19:13:04.407Z,7.97
2018-08-19T19:15:38.232Z,7.00
2018-08-19T19:18:08.023Z,6.90
2018-08-19T19:20:36.132Z,7.10
2018-08-19T19:23:04.471Z,6.20
2018-08-19T19:25:36.818Z,6.37
2018-08-19T19:28:06.546Z,6.67
2018-08-19T19:30:34.697Z,6.70
2018-08-19T19:33:09.073Z,6.10
2018-08-19T19:35:37.472Z,6.43
2018-08-19T19:38:05.844Z,6.07
2018-08-19T19:40:33.983Z,5.60
2018-08-19T19:43:02.151Z,6.00
2018-08-19T19:45:39.704Z,6.03
2018-08-19T19:48:08.587Z,6.00
2018-08-19T19:50:37.683Z,6.10
2018-08-19T19:53:05.809Z,5.63
2018-08-19T19:55:34.337Z,6.20
2018-08-19T19:58:02.559Z,5.90
2018-08-19T20:00:45.057Z,5.93
2018-08-19T20:03:13.347Z,5.40
2018-08-19T20:05:41.475Z,6.13
2018-08-19T20:08:09.613Z,5.63
2018-08-19T20:10:38.080Z,6.03
2018-08-19T20:13:06.180Z,6.20
2018-08-19T20:15:34.363Z,5.67
2018-08-19T20:18:02.476Z,6.07
2018-08-19T20:20:30.600Z,5.20
2018-08-19T20:22:58.700Z,6.03
2018-08-19T20:25:26.791Z,5.60
2018-08-19T20:28:09.637Z,5.33
2018-08-19T20:30:38.467Z,5.43
2018-08-19T20:33:14.150Z,5.40
2018-08-19T20:35:42.228Z,5.47
2018-08-19T20:38:10.426Z,5.63
2018-08-19T20:40:38.585Z,5.40
2018-08-19T20:43:10.964Z,5.87
2018-08-19T20:45:39.100Z,5.27
2018-08-19T20:48:07.245Z,5.50
2018-08-19T20:50:35.382Z,5.37
2018-08-19T20:53:03.476Z,5.70
2018-08-19T20:55:31.590Z,5.20
2018-08-19T20:57:59.754Z,5.40
2018-08-19T21:00:27.920Z,6.00
2018-08-19T21:02:56.063Z,5.60
2018-08-19T21:05:24.171Z,5.37
2018-08-19T21:07:54.099Z,6.17
2018-08-19T21:10:22.257Z,5.10
2018-08-19T21:12:50.375Z,5.13
2018-08-19T21:15:22.997Z,5.27
2018-08-19T21:17:51.123Z,5.33
2018-08-19T21:20:19.596Z,5.70
2018-08-19T21:22:47.763Z,5.00
2018-08-19T21:25:15.887Z,5.33
2018-08-19T21:27:44.031Z,5.30
2018-08-19T21:30:12.267Z,4.93
2018-08-19T21:32:40.322Z,5.70
2018-08-19T21:35:08.524Z,5.80
2018-08-19T21:37:36.719Z,5.80
2018-08-19T21:40:05.392Z,5.40
2018-08-19T21:42:44.916Z,5.57
2018-08-19T21:45:13.036Z,6.00
2018-08-19T21:47:41.132Z,5.97
2018-08-19T21:50:09.224Z,5.63
2018-08-19T21:52:42.935Z,5.57
2018-08-19T21:55:11.099Z,5.77
2018-08-19T21:57:39.210Z,5.40
2018-08-19T22:00:07.360Z,5.90
2018-08-19T22:02:40.841Z,5.47
2018-08-19T22:05:08.964Z,5.70
2018-08-19T22:07:37.092Z,5.87
2018-08-19T22:10:05.875Z,6.00
2018-08-19T22:12:35.305Z,6.03
2018-08-19T22:15:03.456Z,6.17
2018-08-19T22:17:31.577Z,5.27
2018-08-19T22:19:59.700Z,5.70
2018-08-19T22:22:27.886Z,5.93
2018-08-19T22:24:56.015Z,5.60
2018-08-19T22:27:24.120Z,5.73
2018-08-19T22:29:52.212Z,5.80
2018-08-19T22:32:20.367Z,6.23
2018-08-19T22:34:48.526Z,5.97
2018-08-19T22:37:16.589Z,5.40
2018-08-19T22:39:45.003Z,5.37
2018-08-19T22:42:13.119Z,5.90
2018-08-19T22:44:41.292Z,5.90
2018-08-19T22:47:09.435Z,5.87
2018-08-19T22:49:37.535Z,6.00
2018-08-19T22:52:18.092Z,5.60
2018-08-19T22:54:46.200Z,5.53
2018-08-19T22:57:14.299Z,5.90
2018-08-19T22:59:42.556Z,5.50
2018-08-19T23:02:10.700Z,6.03
2018-08-19T23:04:38.823Z,5.40
2018-08-19T23:07:07.000Z,5.37
2018-08-19T23:09:35.118Z,5.70
2018-08-19T23:12:03.228Z,5.50
2018-08-19T23:14:42.779Z,5.93
2018-08-19T23:17:10.852Z,5.43
2018-08-19T23:19:39.037Z,6.03
2018-08-19T23:22:07.176Z,5.53
2018-08-19T23:24:35.384Z,5.80
2018-08-19T23:27:03.523Z,5.73
2018-08-19T23:29:31.640Z,5.03
2018-08-19T23:31:59.777Z,5.53
2018-08-19T23:34:27.868Z,5.53
2018-08-19T23:36:56.032Z,5.93
2018-08-19T23:39:24.119Z,6.10
2018-08-19T23:41:52.207Z,5.33
2018-08-19T23:44:20.366Z,5.70
2018-08-19T23:46:48.460Z,6.03
2018-08-19T23:49:16.555Z,5.60
2018-08-19T23:51:44.667Z,5.30
2018-08-19T23:54:12.759Z,6.00
2018-08-19T23:56:40.879Z,5.60
2018-08-19T23:59:08.971Z,5.80
